Terminal Aerodrome Forecast
Issued by NWS

Home | Current Version | Previous Version | Text Only | Print | Product List | Glossary On
Versions: 1 2 3 4 5 6 7 8 9 10 11 12 13
000
FTUS44 KLUB 210522
TAFCDS
TAF
KCDS 210522Z 2106/2206 17015KT P6SM FEW250
     FM211600 22015KT P6SM SCT020 SCT100
     FM212300 34017G27KT P6SM SCT110=

USA.gov is the U.S. government's official web portal to all federal, state and local government web resources and services.